createdAt,value
2023-02-01T00:00:49.459Z,1013.14
2023-02-01T00:01:49.442Z,1013.12
2023-02-01T00:02:49.522Z,1013.14
2023-02-01T00:03:49.483Z,1013.16
2023-02-01T00:04:49.421Z,1013.19
2023-02-01T00:05:49.415Z,1013.21
2023-02-01T00:06:49.403Z,1013.22
2023-02-01T00:07:49.392Z,1013.28
2023-02-01T00:08:49.377Z,1013.26
2023-02-01T00:09:49.375Z,1013.26
2023-02-01T00:10:49.374Z,1013.25
2023-02-01T00:11:49.381Z,1013.29
2023-02-01T00:12:49.344Z,1013.31
2023-02-01T00:13:49.340Z,1013.29
2023-02-01T00:14:49.347Z,1013.25
2023-02-01T00:15:49.355Z,1013.26
2023-02-01T00:16:49.311Z,1013.20
2023-02-01T00:17:49.321Z,1013.22
2023-02-01T00:18:49.290Z,1013.26
2023-02-01T00:19:49.275Z,1013.23
2023-02-01T00:20:49.280Z,1013.26
2023-02-01T00:21:49.264Z,1013.27
2023-02-01T00:22:49.258Z,1013.28
2023-02-01T00:23:49.262Z,1013.25
2023-02-01T00:24:49.229Z,1013.23
2023-02-01T00:25:49.224Z,1013.21
2023-02-01T00:26:49.326Z,1013.19
2023-02-01T00:27:49.204Z,1013.22
2023-02-01T00:28:49.198Z,1013.21
2023-02-01T00:29:49.228Z,1013.21
2023-02-01T00:30:49.224Z,1013.21
2023-02-01T00:31:49.248Z,1013.17
2023-02-01T00:32:49.159Z,1013.24
2023-02-01T00:33:49.153Z,1013.20
2023-02-01T00:34:49.145Z,1013.18
2023-02-01T00:35:49.131Z,1013.13
2023-02-01T00:36:49.130Z,1013.10
2023-02-01T00:37:49.125Z,1013.15
2023-02-01T00:38:49.101Z,1013.19
2023-02-01T00:39:49.111Z,1013.20
2023-02-01T00:40:49.090Z,1013.23
2023-02-01T00:41:49.078Z,1013.22
2023-02-01T00:42:49.073Z,1013.23
2023-02-01T00:43:49.069Z,1013.26
2023-02-01T00:44:49.050Z,1013.22
2023-02-01T00:45:49.043Z,1013.21
2023-02-01T00:46:49.068Z,1013.24
2023-02-01T00:47:49.025Z,1013.20
2023-02-01T00:48:49.036Z,1013.24
2023-02-01T00:49:49.015Z,1013.15
2023-02-01T00:50:48.998Z,1013.19
2023-02-01T00:51:48.986Z,1013.18
2023-02-01T00:52:48.981Z,1013.19
2023-02-01T00:53:48.961Z,1013.21
2023-02-01T00:54:48.960Z,1013.19
2023-02-01T00:55:48.959Z,1013.14
2023-02-01T00:56:48.978Z,1013.19
2023-02-01T00:57:48.946Z,1013.17
2023-02-01T00:58:48.948Z,1013.15
2023-02-01T00:59:48.921Z,1013.17
2023-02-01T01:00:48.987Z,1013.15
2023-02-01T01:01:48.913Z,1013.19
2023-02-01T01:02:48.887Z,1013.20
2023-02-01T01:03:48.881Z,1013.23
2023-02-01T01:04:48.872Z,1013.25
2023-02-01T01:05:48.857Z,1013.17
2023-02-01T01:06:48.849Z,1013.24
2023-02-01T01:07:48.842Z,1013.17
2023-02-01T01:08:48.838Z,1013.23
2023-02-01T01:09:48.820Z,1013.23
2023-02-01T01:10:48.813Z,1013.20
2023-02-01T01:11:48.795Z,1013.15
2023-02-01T01:12:48.799Z,1013.19
2023-02-01T01:13:48.798Z,1013.18
2023-02-01T01:14:48.779Z,1013.23
2023-02-01T01:15:48.778Z,1013.19
2023-02-01T01:16:48.764Z,1013.14
2023-02-01T01:17:48.759Z,1013.10
2023-02-01T01:18:48.733Z,1013.05
2023-02-01T01:19:48.733Z,1013.02
2023-02-01T01:20:48.730Z,1013.01
2023-02-01T01:21:48.715Z,1012.98
2023-02-01T01:22:48.694Z,1012.93
2023-02-01T01:23:48.698Z,1012.90
2023-02-01T01:24:48.692Z,1012.84
2023-02-01T01:25:48.681Z,1012.81
2023-02-01T01:26:48.681Z,1012.83
2023-02-01T01:27:48.657Z,1012.77
2023-02-01T01:28:48.653Z,1012.79
2023-02-01T01:29:48.638Z,1012.77
2023-02-01T01:30:48.680Z,1012.76
2023-02-01T01:31:48.676Z,1012.70
2023-02-01T01:32:48.614Z,1012.68
2023-02-01T01:33:48.599Z,1012.67
2023-02-01T01:34:48.588Z,1012.67
2023-02-01T01:35:48.584Z,1012.66
2023-02-01T01:36:48.572Z,1012.71
2023-02-01T01:37:48.566Z,1012.73
2023-02-01T01:38:48.561Z,1012.68
2023-02-01T01:39:48.560Z,1012.72
2023-02-01T01:40:48.543Z,1012.75
2023-02-01T01:41:48.528Z,1012.76
2023-02-01T01:42:48.522Z,1012.78
2023-02-01T01:43:48.508Z,1012.84
2023-02-01T01:44:48.502Z,1012.91
2023-02-01T01:45:48.500Z,1012.95
2023-02-01T01:46:48.565Z,1012.99
2023-02-01T01:47:48.473Z,1012.98
2023-02-01T01:48:48.472Z,1012.96
2023-02-01T01:49:48.461Z,1013.03
2023-02-01T01:50:48.450Z,1013.02
2023-02-01T01:51:48.446Z,1013.04
2023-02-01T01:52:48.431Z,1013.07
2023-02-01T01:53:48.418Z,1013.12
2023-02-01T01:54:48.415Z,1013.10
2023-02-01T01:55:48.417Z,1013.10
2023-02-01T01:56:48.392Z,1013.07
2023-02-01T01:57:48.396Z,1013.06
2023-02-01T01:58:48.367Z,1013.07
2023-02-01T01:59:48.363Z,1013.11
2023-02-01T02:00:48.401Z,1013.15
2023-02-01T02:01:48.410Z,1013.12
2023-02-01T02:02:48.355Z,1013.14
2023-02-01T02:03:48.326Z,1013.12
2023-02-01T02:04:48.314Z,1013.09
2023-02-01T02:05:48.309Z,1013.11
2023-02-01T02:06:48.297Z,1013.03
2023-02-01T02:07:48.291Z,1013.03
2023-02-01T02:08:48.282Z,1012.96
2023-02-01T02:09:59.875Z,1012.93
2023-02-01T02:10:48.261Z,1012.95
2023-02-01T02:11:48.255Z,1012.94
2023-02-01T02:12:48.252Z,1012.92
2023-02-01T02:13:48.242Z,1012.92
2023-02-01T02:14:48.221Z,1012.86
2023-02-01T02:15:48.221Z,1012.88
2023-02-01T02:16:48.213Z,1012.83
2023-02-01T02:17:48.195Z,1012.75
2023-02-01T02:18:48.191Z,1012.66
2023-02-01T02:19:48.178Z,1012.68
2023-02-01T02:20:48.182Z,1012.67
2023-02-01T02:21:48.166Z,1012.63
2023-02-01T02:22:48.161Z,1012.62
2023-02-01T02:23:48.147Z,1012.64
2023-02-01T02:24:48.154Z,1012.63
2023-02-01T02:25:48.130Z,1012.62
2023-02-01T02:26:48.136Z,1012.66
2023-02-01T02:27:48.106Z,1012.70
2023-02-01T02:28:48.100Z,1012.61
2023-02-01T02:29:48.098Z,1012.59
2023-02-01T02:30:48.163Z,1012.58
2023-02-01T02:31:48.134Z,1012.66
2023-02-01T02:32:48.066Z,1012.67
2023-02-01T02:33:48.053Z,1012.64
2023-02-01T02:34:48.044Z,1012.68
2023-02-01T02:35:48.038Z,1012.71
2023-02-01T02:36:48.025Z,1012.72
2023-02-01T02:37:48.013Z,1012.75
2023-02-01T02:38:48.009Z,1012.69
2023-02-01T02:39:48.009Z,1012.64
2023-02-01T02:40:47.992Z,1012.69
2023-02-01T02:41:47.985Z,1012.64
2023-02-01T02:42:47.970Z,1012.60
2023-02-01T02:43:47.964Z,1012.52
2023-02-01T02:44:47.953Z,1012.56
2023-02-01T02:45:47.983Z,1012.57
2023-02-01T02:46:47.929Z,1012.57
2023-02-01T02:47:47.925Z,1012.62
2023-02-01T02:48:47.917Z,1012.62
2023-02-01T02:49:47.908Z,1012.65
2023-02-01T02:50:47.899Z,1012.66
2023-02-01T02:51:47.893Z,1012.66
2023-02-01T02:52:47.879Z,1012.68
2023-02-01T02:53:47.871Z,1012.69
2023-02-01T02:54:47.903Z,1012.71
2023-02-01T02:55:47.880Z,1012.68
2023-02-01T02:56:47.860Z,1012.68
2023-02-01T02:57:47.843Z,1012.66
2023-02-01T02:58:47.827Z,1012.72
2023-02-01T02:59:47.820Z,1012.70
2023-02-01T03:00:47.835Z,1012.70
2023-02-01T03:01:47.807Z,1012.67
2023-02-01T03:02:47.813Z,1012.69
2023-02-01T03:03:47.786Z,1012.64
2023-02-01T03:04:47.775Z,1012.62
2023-02-01T03:05:47.793Z,1012.64
2023-02-01T03:06:47.753Z,1012.62
2023-02-01T03:07:47.744Z,1012.59
2023-02-01T03:08:47.742Z,1012.59
2023-02-01T03:09:47.730Z,1012.54
2023-02-01T03:10:47.721Z,1012.54
2023-02-01T03:11:47.725Z,1012.52
2023-02-01T03:12:47.696Z,1012.48
2023-02-01T03:13:47.690Z,1012.47
2023-02-01T03:14:47.685Z,1012.46
2023-02-01T03:15:47.670Z,1012.43
2023-02-01T03:16:47.744Z,1012.42
2023-02-01T03:17:47.658Z,1012.35
2023-02-01T03:18:47.642Z,1012.35
2023-02-01T03:19:47.636Z,1012.35
2023-02-01T03:20:47.641Z,1012.30
2023-02-01T03:21:47.642Z,1012.28
2023-02-01T03:22:47.607Z,1012.29
2023-02-01T03:23:47.600Z,1012.26
2023-02-01T03:24:47.598Z,1012.29
2023-02-01T03:25:47.574Z,1012.34
2023-02-01T03:26:47.638Z,1012.33
2023-02-01T03:27:47.555Z,1012.33
2023-02-01T03:28:47.561Z,1012.39
2023-02-01T03:29:47.544Z,1012.32
2023-02-01T03:30:47.545Z,1012.37
2023-02-01T03:31:47.560Z,1012.34
2023-02-01T03:32:47.520Z,1012.29
2023-02-01T03:33:47.504Z,1012.31
2023-02-01T03:34:47.503Z,1012.31
2023-02-01T03:35:47.487Z,1012.34
2023-02-01T03:36:47.485Z,1012.36
2023-02-01T03:37:47.477Z,1012.39
2023-02-01T03:38:47.453Z,1012.40
2023-02-01T03:39:47.449Z,1012.37
2023-02-01T03:40:47.443Z,1012.41
2023-02-01T03:41:47.442Z,1012.37
2023-02-01T03:42:47.452Z,1012.42
2023-02-01T03:43:47.421Z,1012.40
2023-02-01T03:44:47.421Z,1012.43
2023-02-01T03:45:47.465Z,1012.45
2023-02-01T03:46:47.401Z,1012.44
2023-02-01T03:47:47.387Z,1012.46
2023-02-01T03:48:47.371Z,1012.50
2023-02-01T03:49:47.363Z,1012.49
2023-02-01T03:50:47.356Z,1012.45
2023-02-01T03:51:47.356Z,1012.52
2023-02-01T03:52:47.334Z,1012.46
2023-02-01T03:53:47.324Z,1012.45
2023-02-01T03:54:47.316Z,1012.48
2023-02-01T03:55:47.306Z,1012.50
2023-02-01T03:56:47.297Z,1012.47
2023-02-01T03:57:47.296Z,1012.48
2023-02-01T03:58:47.279Z,1012.50
2023-02-01T03:59:47.279Z,1012.49
2023-02-01T04:00:47.250Z,1012.50
2023-02-01T04:01:47.256Z,1012.40
2023-02-01T04:02:47.324Z,1012.40
2023-02-01T04:03:47.239Z,1012.39
2023-02-01T04:04:47.222Z,1012.40
2023-02-01T04:05:47.214Z,1012.42
2023-02-01T04:06:47.203Z,1012.36
2023-02-01T04:07:47.197Z,1012.31
2023-02-01T04:08:47.183Z,1012.34
2023-02-01T04:09:47.181Z,1012.37
2023-02-01T04:10:47.161Z,1012.37
2023-02-01T04:11:47.167Z,1012.36
2023-02-01T04:12:47.151Z,1012.43
2023-02-01T04:13:47.139Z,1012.41
2023-02-01T04:14:47.135Z,1012.40
2023-02-01T04:15:47.123Z,1012.36
2023-02-01T04:16:47.165Z,1012.35
2023-02-01T04:17:47.094Z,1012.34
2023-02-01T04:18:47.097Z,1012.30
2023-02-01T04:19:47.101Z,1012.39
2023-02-01T04:20:47.101Z,1012.32
2023-02-01T04:21:47.065Z,1012.27
2023-02-01T04:22:47.054Z,1012.33
2023-02-01T04:23:47.066Z,1012.35
2023-02-01T04:24:47.037Z,1012.31
2023-02-01T04:25:47.036Z,1012.31
2023-02-01T04:26:47.094Z,1012.33
2023-02-01T04:27:47.014Z,1012.35
2023-02-01T04:28:47.003Z,1012.33
2023-02-01T04:29:46.993Z,1012.33
2023-02-01T04:30:47.047Z,1012.33
2023-02-01T04:31:47.053Z,1012.31
2023-02-01T04:32:46.964Z,1012.30
2023-02-01T04:33:46.947Z,1012.37
2023-02-01T04:34:46.952Z,1012.31
2023-02-01T04:35:46.951Z,1012.34
2023-02-01T04:36:47.441Z,1012.29
2023-02-01T04:37:46.920Z,1012.33
2023-02-01T04:38:46.915Z,1012.32
2023-02-01T04:39:46.915Z,1012.31
2023-02-01T04:40:46.888Z,1012.31
2023-02-01T04:41:46.877Z,1012.30
2023-02-01T04:42:46.884Z,1012.28
2023-02-01T04:43:46.884Z,1012.30
2023-02-01T04:44:46.849Z,1012.32
2023-02-01T04:45:46.849Z,1012.30
2023-02-01T04:46:46.836Z,1012.29
2023-02-01T04:47:46.835Z,1012.31
2023-02-01T04:48:46.839Z,1012.29
2023-02-01T04:49:46.811Z,1012.34
2023-02-01T04:50:46.791Z,1012.28
2023-02-01T04:51:46.788Z,1012.23
2023-02-01T04:52:46.781Z,1012.25
2023-02-01T04:53:46.764Z,1012.26
2023-02-01T04:54:46.756Z,1012.25
2023-02-01T04:55:46.749Z,1012.24
2023-02-01T04:56:46.736Z,1012.27
2023-02-01T04:57:46.736Z,1012.28
2023-02-01T04:58:46.724Z,1012.28
2023-02-01T04:59:46.711Z,1012.25
2023-02-01T05:00:46.718Z,1012.30
2023-02-01T05:01:48.833Z,1012.32
2023-02-01T05:02:46.679Z,1012.29
2023-02-01T05:03:46.680Z,1012.28
2023-02-01T05:04:46.738Z,1012.29
2023-02-01T05:05:46.651Z,1012.22
2023-02-01T05:06:46.659Z,1012.19
2023-02-01T05:07:46.635Z,1012.23
2023-02-01T05:08:46.623Z,1012.21
2023-02-01T05:09:46.610Z,1012.19
2023-02-01T05:10:46.601Z,1012.13
2023-02-01T05:11:46.602Z,1012.11
2023-02-01T05:12:46.587Z,1012.05
2023-02-01T05:13:46.576Z,1012.04
2023-02-01T05:14:46.564Z,1012.02
2023-02-01T05:15:46.611Z,1011.95
2023-02-01T05:16:46.549Z,1011.98
2023-02-01T05:17:46.540Z,1011.98
2023-02-01T05:18:46.526Z,1011.97
2023-02-01T05:19:46.512Z,1011.97
2023-02-01T05:20:46.502Z,1011.97
2023-02-01T05:21:46.508Z,1011.92
2023-02-01T05:22:46.492Z,1011.92
2023-02-01T05:23:46.479Z,1011.91
2023-02-01T05:24:46.470Z,1011.94
2023-02-01T05:25:46.458Z,1011.93
2023-02-01T05:26:46.516Z,1011.99
2023-02-01T05:27:46.448Z,1012.01
2023-02-01T05:28:46.429Z,1011.96
2023-02-01T05:29:46.417Z,1011.99
2023-02-01T05:30:46.527Z,1012.06
2023-02-01T05:31:46.573Z,1012.06
2023-02-01T05:32:46.392Z,1012.13
2023-02-01T05:33:46.398Z,1012.14
2023-02-01T05:34:46.368Z,1012.13
2023-02-01T05:35:46.372Z,1012.18
2023-02-01T05:36:46.349Z,1012.15
2023-02-01T05:37:46.340Z,1012.18
2023-02-01T05:38:46.340Z,1012.29
2023-02-01T05:39:46.331Z,1012.26
2023-02-01T05:40:46.315Z,1012.34
2023-02-01T05:41:46.305Z,1012.29
2023-02-01T05:42:46.299Z,1012.27
2023-02-01T05:43:46.285Z,1012.30
2023-02-01T05:44:46.273Z,1012.26
2023-02-01T05:45:46.263Z,1012.33
2023-02-01T05:46:46.249Z,1012.32
2023-02-01T05:47:46.244Z,1012.32
2023-02-01T05:48:46.245Z,1012.32
2023-02-01T05:49:46.229Z,1012.29
2023-02-01T05:50:46.213Z,1012.27
2023-02-01T05:51:46.209Z,1012.28
2023-02-01T05:52:46.191Z,1012.25
2023-02-01T05:53:46.187Z,1012.29
2023-02-01T05:54:46.176Z,1012.31
2023-02-01T05:55:46.166Z,1012.35
2023-02-01T05:56:46.158Z,1012.38
2023-02-01T05:57:46.156Z,1012.36
2023-02-01T05:58:46.143Z,1012.39
2023-02-01T05:59:46.129Z,1012.39
2023-02-01T06:00:46.121Z,1012.30
2023-02-01T06:01:46.116Z,1012.27
2023-02-01T06:02:46.109Z,1012.24
2023-02-01T06:03:46.124Z,1012.19
2023-02-01T06:04:46.080Z,1012.18
2023-02-01T06:05:46.090Z,1012.13
2023-02-01T06:06:46.062Z,1012.15
2023-02-01T06:07:46.048Z,1012.18
2023-02-01T06:08:46.040Z,1012.23
2023-02-01T06:09:46.040Z,1012.26
2023-02-01T06:10:46.009Z,1012.22
2023-02-01T06:11:46.018Z,1012.25
2023-02-01T06:12:46.007Z,1012.21
2023-02-01T06:13:45.993Z,1012.23
2023-02-01T06:14:45.979Z,1012.20
2023-02-01T06:15:46.006Z,1012.23
2023-02-01T06:16:45.958Z,1012.30
2023-02-01T06:17:45.951Z,1012.27
2023-02-01T06:18:45.930Z,1012.26
2023-02-01T06:19:45.929Z,1012.31
2023-02-01T06:20:45.911Z,1012.29
2023-02-01T06:21:45.907Z,1012.33
2023-02-01T06:22:45.897Z,1012.27
2023-02-01T06:23:45.882Z,1012.31
2023-02-01T06:24:45.874Z,1012.26
2023-02-01T06:25:45.870Z,1012.30
2023-02-01T06:26:45.861Z,1012.28
2023-02-01T06:27:45.856Z,1012.30
2023-02-01T06:28:45.836Z,1012.32
2023-02-01T06:29:45.832Z,1012.24
2023-02-01T06:30:45.832Z,1012.22
2023-02-01T06:31:45.843Z,1012.21
2023-02-01T06:32:45.803Z,1012.21
2023-02-01T06:33:45.784Z,1012.16
2023-02-01T06:34:45.779Z,1012.21
2023-02-01T06:35:45.774Z,1012.20
2023-02-01T06:36:45.755Z,1012.20
2023-02-01T06:37:45.765Z,1012.24
2023-02-01T06:38:45.749Z,1012.25
2023-02-01T06:39:45.723Z,1012.25
2023-02-01T06:40:45.723Z,1012.26
2023-02-01T06:41:45.712Z,1012.21
2023-02-01T06:42:45.694Z,1012.23
2023-02-01T06:43:45.697Z,1012.27
2023-02-01T06:44:45.684Z,1012.26
2023-02-01T06:45:45.668Z,1012.35
2023-02-01T06:46:45.740Z,1012.32
2023-02-01T06:47:45.648Z,1012.27
2023-02-01T06:48:45.637Z,1012.25
2023-02-01T06:49:45.631Z,1012.25
2023-02-01T06:50:45.657Z,1012.33
2023-02-01T06:51:45.607Z,1012.30
2023-02-01T06:52:45.598Z,1012.36
2023-02-01T06:53:45.591Z,1012.37
2023-02-01T06:54:45.578Z,1012.31
2023-02-01T06:55:45.575Z,1012.38
2023-02-01T06:56:45.561Z,1012.42
2023-02-01T06:57:45.554Z,1012.53
2023-02-01T06:58:45.542Z,1012.49
2023-02-01T06:59:45.546Z,1012.53
2023-02-01T07:00:45.534Z,1012.58
2023-02-01T07:01:45.581Z,1012.55
2023-02-01T07:02:45.502Z,1012.55
2023-02-01T07:03:45.491Z,1012.59
2023-02-01T07:04:45.481Z,1012.61
2023-02-01T07:05:45.472Z,1012.70
2023-02-01T07:06:45.469Z,1012.68
2023-02-01T07:07:45.450Z,1012.67
2023-02-01T07:08:45.437Z,1012.66
2023-02-01T07:09:45.441Z,1012.69
2023-02-01T07:10:45.423Z,1012.68
2023-02-01T07:11:45.410Z,1012.65
2023-02-01T07:12:45.401Z,1012.68
2023-02-01T07:13:45.396Z,1012.71
2023-02-01T07:14:45.380Z,1012.75
2023-02-01T07:15:45.372Z,1012.67
2023-02-01T07:16:45.361Z,1012.68
2023-02-01T07:17:45.349Z,1012.74
2023-02-01T07:18:45.345Z,1012.66
2023-02-01T07:19:45.330Z,1012.67
2023-02-01T07:20:45.327Z,1012.67
2023-02-01T07:21:45.316Z,1012.71
2023-02-01T07:22:45.301Z,1012.64
2023-02-01T07:23:45.297Z,1012.67
2023-02-01T07:24:45.281Z,1012.66
2023-02-01T07:25:45.285Z,1012.64
2023-02-01T07:26:45.282Z,1012.68
2023-02-01T07:27:45.267Z,1012.70
2023-02-01T07:28:45.264Z,1012.73
2023-02-01T07:29:45.234Z,1012.72
2023-02-01T07:30:45.234Z,1012.72
2023-02-01T07:31:45.214Z,1012.78
2023-02-01T07:32:45.322Z,1012.85
2023-02-01T07:33:45.202Z,1012.86
2023-02-01T07:34:45.196Z,1012.91
2023-02-01T07:35:45.179Z,1012.96
2023-02-01T07:36:45.180Z,1012.87
2023-02-01T07:37:45.163Z,1012.99
2023-02-01T07:38:45.157Z,1013.00
2023-02-01T07:39:45.147Z,1013.05
2023-02-01T07:40:45.127Z,1013.03
2023-02-01T07:41:45.118Z,1013.05
2023-02-01T07:42:45.112Z,1013.05
2023-02-01T07:43:45.096Z,1013.06
2023-02-01T07:44:45.100Z,1013.11
2023-02-01T07:45:45.113Z,1013.08
2023-02-01T07:46:45.065Z,1013.03
2023-02-01T07:47:45.064Z,1013.05
2023-02-01T07:48:45.060Z,1013.06
2023-02-01T07:49:45.038Z,1013.02
2023-02-01T07:50:45.033Z,1013.05
2023-02-01T07:51:45.022Z,1012.97
2023-02-01T07:52:45.021Z,1013.00
2023-02-01T07:53:45.008Z,1013.00
2023-02-01T07:54:45.002Z,1012.98
2023-02-01T07:55:44.979Z,1012.99
2023-02-01T07:56:44.972Z,1012.95
2023-02-01T07:57:44.978Z,1012.93
2023-02-01T07:58:44.952Z,1012.91
2023-02-01T07:59:44.941Z,1012.98
2023-02-01T08:00:45.013Z,1013.00
2023-02-01T08:01:44.936Z,1012.96
2023-02-01T08:02:44.919Z,1013.00
2023-02-01T08:03:44.912Z,1012.94
2023-02-01T08:04:44.895Z,1013.01
2023-02-01T08:05:44.896Z,1012.99
2023-02-01T08:06:44.881Z,1013.00
2023-02-01T08:07:44.863Z,1012.99
2023-02-01T08:08:44.856Z,1013.03
2023-02-01T08:09:44.850Z,1013.02
2023-02-01T08:10:44.841Z,1013.07
2023-02-01T08:11:44.826Z,1013.12
2023-02-01T08:12:44.810Z,1013.03
2023-02-01T08:13:44.813Z,1013.08
2023-02-01T08:14:44.811Z,1013.04
2023-02-01T08:15:44.793Z,1013.14
2023-02-01T08:16:44.802Z,1013.12
2023-02-01T08:17:46.922Z,1013.16
2023-02-01T08:18:44.762Z,1013.17
2023-02-01T08:19:44.749Z,1013.23
2023-02-01T08:20:44.737Z,1013.15
2023-02-01T08:21:44.735Z,1013.17
2023-02-01T08:22:44.724Z,1013.14
2023-02-01T08:23:44.722Z,1013.16
2023-02-01T08:24:44.703Z,1013.13
2023-02-01T08:25:44.690Z,1013.12
2023-02-01T08:26:44.761Z,1013.11
2023-02-01T08:27:44.685Z,1013.10
2023-02-01T08:28:44.671Z,1013.08
2023-02-01T08:29:44.656Z,1013.08
2023-02-01T08:30:44.701Z,1013.11
2023-02-01T08:31:44.765Z,1013.16
2023-02-01T08:32:44.633Z,1013.10
2023-02-01T08:33:44.614Z,1013.09
2023-02-01T08:34:44.606Z,1013.11
2023-02-01T08:35:44.590Z,1013.11
2023-02-01T08:36:44.643Z,1013.17
2023-02-01T08:37:44.574Z,1013.11
2023-02-01T08:38:44.575Z,1013.10
2023-02-01T08:39:46.773Z,1013.10
2023-02-01T08:40:44.552Z,1013.07
2023-02-01T08:41:44.535Z,1013.12
2023-02-01T08:42:44.535Z,1013.10
2023-02-01T08:43:44.524Z,1013.13
2023-02-01T08:44:44.521Z,1013.16
2023-02-01T08:45:44.508Z,1013.13
2023-02-01T08:46:44.511Z,1013.23
2023-02-01T08:47:44.479Z,1013.20
2023-02-01T08:48:44.479Z,1013.20
2023-02-01T08:49:44.461Z,1013.25
2023-02-01T08:50:44.450Z,1013.32
2023-02-01T08:51:44.447Z,1013.26
2023-02-01T08:52:44.436Z,1013.26
2023-02-01T08:53:44.442Z,1013.29
2023-02-01T08:54:44.428Z,1013.30
2023-02-01T08:55:44.402Z,1013.29
2023-02-01T08:56:44.425Z,1013.28
2023-02-01T08:57:44.388Z,1013.30
2023-02-01T08:58:44.395Z,1013.30
2023-02-01T08:59:44.366Z,1013.37
2023-02-01T09:00:44.372Z,1013.28
2023-02-01T09:01:44.386Z,1013.35
2023-02-01T09:02:44.374Z,1013.41
2023-02-01T09:03:44.403Z,1013.40
2023-02-01T09:04:44.347Z,1013.48
2023-02-01T09:05:49.847Z,1013.46
2023-02-01T09:06:44.309Z,1013.50
2023-02-01T09:07:44.294Z,1013.46
2023-02-01T09:08:44.285Z,1013.48
2023-02-01T09:09:44.272Z,1013.52
2023-02-01T09:10:44.272Z,1013.51
2023-02-01T09:11:44.254Z,1013.50
2023-02-01T09:12:44.244Z,1013.53
2023-02-01T09:13:44.252Z,1013.57
2023-02-01T09:14:44.249Z,1013.49
2023-02-01T09:15:44.313Z,1013.45
2023-02-01T09:16:44.207Z,1013.52
2023-02-01T09:17:44.196Z,1013.50
2023-02-01T09:18:56.176Z,1013.38
2023-02-01T09:19:44.186Z,1013.50
2023-02-01T09:20:44.169Z,1013.39
2023-02-01T09:21:44.156Z,1013.45
2023-02-01T09:22:44.147Z,1013.47
2023-02-01T09:23:44.136Z,1013.41
2023-02-01T09:24:44.197Z,1013.41
2023-02-01T09:25:44.135Z,1013.42
2023-02-01T09:26:44.227Z,1013.38
2023-02-01T09:27:44.103Z,1013.33
2023-02-01T09:28:44.100Z,1013.33
2023-02-01T09:29:44.090Z,1013.39
2023-02-01T09:30:44.193Z,1013.34
2023-02-01T09:31:53.404Z,1013.36
2023-02-01T09:32:44.058Z,1013.38
2023-02-01T09:33:44.047Z,1013.40
2023-02-01T09:34:44.042Z,1013.40
2023-02-01T09:35:44.025Z,1013.40
2023-02-01T09:36:44.023Z,1013.37
2023-02-01T09:37:44.003Z,1013.30
2023-02-01T09:38:52.286Z,1013.37
2023-02-01T09:39:44.001Z,1013.34
2023-02-01T09:40:43.988Z,1013.39
2023-02-01T09:41:43.983Z,1013.41
2023-02-01T09:42:43.965Z,1013.35
2023-02-01T09:43:43.961Z,1013.35
2023-02-01T09:44:44.809Z,1013.40
2023-02-01T09:45:43.937Z,1013.39
2023-02-01T09:46:43.926Z,1013.43
2023-02-01T09:47:43.923Z,1013.36
2023-02-01T09:48:43.907Z,1013.41
2023-02-01T09:49:43.893Z,1013.37
2023-02-01T09:50:43.886Z,1013.37
2023-02-01T09:51:43.883Z,1013.40
2023-02-01T09:52:43.877Z,1013.39
2023-02-01T09:53:43.864Z,1013.51
2023-02-01T09:54:43.868Z,1013.46
2023-02-01T09:55:43.848Z,1013.47
2023-02-01T09:56:43.842Z,1013.43
2023-02-01T09:57:43.834Z,1013.45
2023-02-01T09:58:43.814Z,1013.47
2023-02-01T09:59:43.802Z,1013.47
2023-02-01T10:00:43.789Z,1013.50
2023-02-01T10:01:43.830Z,1013.45
2023-02-01T10:02:43.777Z,1013.42
2023-02-01T10:03:43.797Z,1013.44
2023-02-01T10:04:43.762Z,1013.41
2023-02-01T10:05:43.745Z,1013.36
2023-02-01T10:06:43.749Z,1013.33
2023-02-01T10:07:43.741Z,1013.38
2023-02-01T10:08:43.724Z,1013.33
2023-02-01T10:09:43.713Z,1013.32
2023-02-01T10:10:43.699Z,1013.35
2023-02-01T10:11:43.688Z,1013.37
2023-02-01T10:12:43.683Z,1013.27
2023-02-01T10:13:43.673Z,1013.29
2023-02-01T10:14:43.674Z,1013.27
2023-02-01T10:15:43.665Z,1013.29
2023-02-01T10:16:43.745Z,1013.27
2023-02-01T10:17:43.639Z,1013.24
2023-02-01T10:18:43.630Z,1013.21
2023-02-01T10:19:43.621Z,1013.19
2023-02-01T10:20:43.668Z,1013.18
2023-02-01T10:21:43.604Z,1013.21
2023-02-01T10:23:05.243Z,1013.18
2023-02-01T10:23:43.580Z,1013.21
2023-02-01T10:24:43.585Z,1013.20
2023-02-01T10:25:43.565Z,1013.21
2023-02-01T10:26:43.642Z,1013.17
2023-02-01T10:27:43.581Z,1013.11
2023-02-01T10:28:43.540Z,1013.18
2023-02-01T10:29:43.538Z,1013.07
2023-02-01T10:30:43.553Z,1013.11
2023-02-01T10:31:43.689Z,1013.14
2023-02-01T10:32:43.521Z,1013.09
2023-02-01T10:33:43.500Z,1013.10
2023-02-01T10:34:43.486Z,1013.22
2023-02-01T10:35:43.476Z,1013.07
2023-02-01T10:36:43.471Z,1013.05
2023-02-01T10:37:43.470Z,1013.07
2023-02-01T10:38:43.459Z,1013.14
2023-02-01T10:39:43.441Z,1013.10
2023-02-01T10:40:43.435Z,1013.13
2023-02-01T10:41:43.419Z,1013.13
2023-02-01T10:42:43.420Z,1013.03
2023-02-01T10:43:43.410Z,1013.05
2023-02-01T10:44:43.402Z,1013.06
2023-02-01T10:45:43.394Z,1013.08
2023-02-01T10:46:43.509Z,1013.09
2023-02-01T10:47:43.371Z,1013.15
2023-02-01T10:48:43.377Z,1013.15
2023-02-01T10:49:43.364Z,1013.18
2023-02-01T10:50:43.356Z,1013.16
2023-02-01T10:51:43.346Z,1013.05
2023-02-01T10:52:43.335Z,1013.22
2023-02-01T10:53:43.323Z,1013.19
2023-02-01T10:54:43.325Z,1013.08
2023-02-01T10:55:43.321Z,1013.21
2023-02-01T10:56:43.306Z,1013.22
2023-02-01T10:57:43.300Z,1013.17
2023-02-01T10:58:43.286Z,1013.20
2023-02-01T10:59:45.046Z,1013.06
2023-02-01T11:00:43.281Z,1013.06
2023-02-01T11:01:43.290Z,1013.11
2023-02-01T11:02:43.321Z,1013.09
2023-02-01T11:03:43.305Z,1013.06
2023-02-01T11:04:43.263Z,1013.04
2023-02-01T11:05:44.772Z,1013.04
2023-02-01T11:06:43.265Z,1012.99
2023-02-01T11:07:43.247Z,1012.91
2023-02-01T11:08:43.238Z,1012.98
2023-02-01T11:09:43.230Z,1012.98
2023-02-01T11:10:43.241Z,1012.86
2023-02-01T11:11:43.222Z,1012.81
2023-02-01T11:12:43.217Z,1012.82
2023-02-01T11:13:43.210Z,1012.92
2023-02-01T11:14:43.216Z,1012.78
2023-02-01T11:15:43.223Z,1012.75
2023-02-01T11:16:43.196Z,1012.78
2023-02-01T11:17:43.208Z,1012.86
2023-02-01T11:18:43.182Z,1012.94
2023-02-01T11:19:43.182Z,1012.79
2023-02-01T11:20:43.177Z,1012.77
2023-02-01T11:21:43.171Z,1012.84
2023-02-01T11:22:43.159Z,1012.79
2023-02-01T11:23:43.151Z,1012.81
2023-02-01T11:24:43.147Z,1012.82
2023-02-01T11:25:43.139Z,1013.01
2023-02-01T11:26:43.179Z,1012.84
2023-02-01T11:27:54.467Z,1012.88
2023-02-01T11:28:43.119Z,1012.90
2023-02-01T11:29:43.117Z,1012.83
2023-02-01T11:30:43.140Z,1012.85
2023-02-01T11:31:43.161Z,1012.88
2023-02-01T11:32:43.091Z,1012.88
2023-02-01T11:33:43.079Z,1012.86
2023-02-01T11:34:43.081Z,1012.86
2023-02-01T11:35:43.081Z,1012.91
2023-02-01T11:36:43.062Z,1012.82
2023-02-01T11:37:43.052Z,1012.84
2023-02-01T11:38:43.051Z,1012.85
2023-02-01T11:39:43.047Z,1012.93
2023-02-01T11:40:43.037Z,1012.82
2023-02-01T11:41:43.031Z,1012.88
2023-02-01T11:42:43.021Z,1012.77
2023-02-01T11:43:43.017Z,1012.72
2023-02-01T11:44:43.008Z,1012.75
2023-02-01T11:45:42.997Z,1012.72
2023-02-01T11:46:43.068Z,1012.71
2023-02-01T11:47:42.981Z,1012.71
2023-02-01T11:48:42.979Z,1012.80
2023-02-01T11:49:42.976Z,1012.82
2023-02-01T11:50:42.969Z,1012.67
2023-02-01T11:51:42.966Z,1012.64
2023-02-01T11:52:42.978Z,1012.68
2023-02-01T11:53:42.951Z,1012.65
2023-02-01T11:54:42.934Z,1012.58
2023-02-01T11:55:42.962Z,1012.60
2023-02-01T11:56:42.925Z,1012.54
2023-02-01T11:57:42.920Z,1012.54
2023-02-01T11:58:42.907Z,1012.58
2023-02-01T11:59:45.871Z,1012.61
2023-02-01T12:00:42.893Z,1012.56
2023-02-01T12:01:42.902Z,1012.55
2023-02-01T12:02:44.109Z,1012.61
2023-02-01T12:03:42.874Z,1012.55
2023-02-01T12:04:42.872Z,1012.49
2023-02-01T12:05:42.860Z,1012.50